»·PEaware :: WAT169 KSNA-KLAS

WAT169 :: KSNA-KLAS

FLIGHT INFORMATION

Flight Status: Arrived
Operator:
Walker Air Transport
More flights by this operator :: More flights under this callsign
Pilot: Marty P. (27464)
Aircraft: BEECH AIRCRAFT SUPER KING AIR 350
(B350)
More flights by this aircraft type
Origin: KSNA John Wayne-Orange Co
United States
Destination: KLAS McCarran Intl
United States
More flights between these airports :: More routes between these airports
Route: +MUSEL8 SLI POM GARDY VCV DAG CRESO4
File this flight plan on PilotEdge
Remarks:
Altitude:
(Current/Filed)
27,000ft
Speed:
(Current/Filed)
220kts
Departed: 15-Oct-20 07:21 PM
Arrived: 15-Oct-20 08:16 PM
Distance/Time
Traveled:
197nm/0:55
Distance/Time
To Go:
Arrived

Flight Plot

Page will automatically refresh every two minutes.

Flight plan parsing failed; only flown route is shown


Map Options




Map Legend


Flown Route
Filed Route
Departure Airport
Arrival Airport
Navaid (VOR, NDB)
Fix

Horizontal Profiles

Position Reports

Time Latitude Longitude Heading Altitude Ground
Speed
15-Oct-20 19:06 33.671410 -117.867211 207 61ft 0kts
15-Oct-20 19:07 33.671410 -117.867211 207 61ft 0kts
15-Oct-20 19:08 33.671410 -117.867211 207 61ft 0kts
15-Oct-20 19:09 33.671410 -117.867211 207 61ft 0kts
15-Oct-20 19:10 33.671410 -117.867211 207 61ft 0kts
15-Oct-20 19:11 33.671410 -117.867211 207 61ft 0kts
15-Oct-20 19:12 33.671410 -117.867211 207 61ft 0kts
15-Oct-20 19:13 33.671394 -117.867221 207 61ft 0kts
15-Oct-20 19:14 33.671394 -117.867221 207 61ft 0kts
15-Oct-20 19:15 33.671324 -117.867439 290 61ft 6kts
15-Oct-20 19:16 33.673432 -117.866907 34 61ft 17kts
15-Oct-20 19:17 33.677069 -117.864597 27 61ft 14kts
15-Oct-20 19:18 33.680306 -117.864398 298 61ft 14kts
15-Oct-20 19:19 33.680465 -117.864757 297 61ft 0kts
15-Oct-20 19:20 33.678355 -117.867141 207 61ft 73kts
15-Oct-20 19:21 33.641562 -117.886673 189 1204ft 171kts
15-Oct-20 19:22 33.593683 -117.895411 190 3182ft 181kts
15-Oct-20 19:23 33.555422 -117.923025 283 5043ft 181kts
15-Oct-20 19:24 33.595156 -117.955352 336 6925ft 181kts
15-Oct-20 19:25 33.641809 -117.980066 338 8739ft 186kts
15-Oct-20 19:26 33.689597 -118.005268 339 10546ft 190kts
15-Oct-20 19:27 33.738098 -118.030878 340 12217ft 192kts
15-Oct-20 19:28 33.787879 -118.048797 31 13962ft 187kts
15-Oct-20 19:29 33.829518 -118.012976 38 15791ft 186kts
15-Oct-20 19:30 33.870989 -117.975478 38 17719ft 188kts
15-Oct-20 19:31 33.912900 -117.937496 38 19702ft 191kts
15-Oct-20 19:32 33.955843 -117.898544 38 21952ft 198kts
15-Oct-20 19:33 33.999373 -117.859000 37 24817ft 201kts
15-Oct-20 19:34 34.044495 -117.817957 37 27055ft 221kts
15-Oct-20 19:35 34.098010 -117.760657 48 27045ft 288kts
15-Oct-20 19:36 34.155538 -117.683196 48 27025ft 325kts
15-Oct-20 19:37 34.217609 -117.599419 48 27024ft 342kts
15-Oct-20 19:38 34.289975 -117.523009 27 27048ft 350kts
15-Oct-20 19:39 34.382330 -117.488003 19 27125ft 348kts
15-Oct-20 19:40 34.472830 -117.446661 20 27146ft 347kts
15-Oct-20 19:41 34.561482 -117.401958 30 27145ft 346kts
15-Oct-20 19:42 34.633219 -117.326187 57 27142ft 345kts
15-Oct-20 19:43 34.671978 -117.220858 61 27083ft 339kts
15-Oct-20 19:44 34.716958 -117.121411 60 27132ft 335kts
15-Oct-20 19:45 34.762193 -117.021930 60 26586ft 348kts
15-Oct-20 19:46 34.808411 -116.919967 60 25573ft 337kts
15-Oct-20 19:47 34.852918 -116.821536 60 24565ft 330kts
15-Oct-20 19:48 34.897339 -116.723035 60 24080ft 330kts
15-Oct-20 19:49 34.941381 -116.625061 60 24080ft 329kts
15-Oct-20 19:50 34.985214 -116.526958 60 23947ft 334kts
15-Oct-20 19:51 35.029668 -116.426873 60 22947ft 335kts
15-Oct-20 19:52 35.073791 -116.326960 61 21939ft 333kts
15-Oct-20 19:53 35.117245 -116.228840 60 20950ft 331kts
15-Oct-20 19:54 35.160933 -116.129694 60 19974ft 336kts
15-Oct-20 19:55 35.205535 -116.028114 60 19000ft 341kts
15-Oct-20 19:56 35.249756 -115.927089 60 17986ft 329kts
15-Oct-20 19:57 35.292202 -115.829824 59 16827ft 321kts
15-Oct-20 19:58 35.341777 -115.745289 44 15301ft 293kts
15-Oct-20 19:59 35.392715 -115.677623 44 13618ft 257kts
15-Oct-20 20:00 35.439643 -115.614948 42 11969ft 231kts
15-Oct-20 20:01 35.483645 -115.556070 43 12017ft 250kts
15-Oct-20 20:02 35.533378 -115.489435 43 12024ft 280kts
15-Oct-20 20:03 35.587478 -115.416783 44 12010ft 293kts
15-Oct-20 20:04 35.642596 -115.342720 44 11961ft 296kts
15-Oct-20 20:05 35.696112 -115.272142 44 10426ft 275kts
15-Oct-20 20:06 35.749009 -115.205538 44 8876ft 271kts
15-Oct-20 20:08 35.801827 -115.140900 44 7377ft 267kts
15-Oct-20 20:09 35.854385 -115.077826 34 6969ft 251kts
15-Oct-20 20:10 35.917718 -115.058766 11 7005ft 235kts
15-Oct-20 20:11 35.982963 -115.042521 11 6998ft 239kts
15-Oct-20 20:12 36.048601 -115.040428 356 6359ft 236kts
15-Oct-20 20:13 36.110266 -115.055456 339 4800ft 221kts
15-Oct-20 20:14 36.137125 -115.109804 257 3404ft 167kts
15-Oct-20 20:15 36.114502 -115.147936 203 2469ft 133kts
15-Oct-20 20:16 36.089691 -115.162156 212 2124ft 15kts
15-Oct-20 20:17 36.089403 -115.163502 294 2131ft 0kts
15-Oct-20 20:18 36.090577 -115.164232 332 2129ft 12kts

Navigation Log

Ident Type
Flight plan parsing failed, navigation log unavailable